createdAt,value
2022-11-10T00:01:19.673Z,21.50
2022-11-10T00:03:49.364Z,21.00
2022-11-10T00:06:16.948Z,19.63
2022-11-10T00:08:43.896Z,19.50
2022-11-10T00:11:10.890Z,20.63
2022-11-10T00:13:58.664Z,19.23
2022-11-10T00:16:45.560Z,19.37
2022-11-10T00:19:12.546Z,18.50
2022-11-10T00:21:39.484Z,17.03
2022-11-10T00:24:06.732Z,18.30
2022-11-10T00:26:33.761Z,17.13
2022-11-10T00:29:00.749Z,18.90
2022-11-10T00:31:28.821Z,17.70
2022-11-10T00:33:55.945Z,19.17
2022-11-10T00:48:02.234Z,17.80
2022-11-10T01:25:10.361Z,17.97
2022-11-10T01:27:37.954Z,16.47
2022-11-10T01:30:05.752Z,17.07
2022-11-10T01:32:32.854Z,18.27
2022-11-10T01:34:59.758Z,17.63
2022-11-10T01:37:27.275Z,17.30
2022-11-10T01:39:54.334Z,16.37
2022-11-10T01:42:27.670Z,15.33
2022-11-10T01:45:37.337Z,15.63
2022-11-10T01:48:07.626Z,16.47
2022-11-10T01:50:39.334Z,16.07
2022-11-10T01:53:11.384Z,16.27
2022-11-10T01:55:43.639Z,15.30
2022-11-10T01:58:15.574Z,16.53
2022-11-10T02:00:44.165Z,16.70
2022-11-10T02:03:43.877Z,16.13
2022-11-10T02:06:12.040Z,15.47
2022-11-10T02:08:40.041Z,16.57
2022-11-10T02:11:07.066Z,15.90
2022-11-10T02:13:34.039Z,15.17
2022-11-10T02:16:01.206Z,15.90
2022-11-10T02:18:28.373Z,15.87
2022-11-10T02:20:55.414Z,15.70
2022-11-10T02:23:49.526Z,14.77
2022-11-10T02:26:20.782Z,16.37
2022-11-10T02:28:47.793Z,16.40
2022-11-10T02:31:15.128Z,15.77
2022-11-10T02:33:43.731Z,16.10
2022-11-10T02:36:12.138Z,15.17
2022-11-10T02:38:39.670Z,16.53
2022-11-10T02:41:06.647Z,15.23
2022-11-10T02:43:34.466Z,14.67
2022-11-10T02:46:01.512Z,15.00
2022-11-10T02:48:28.541Z,15.40
2022-11-10T02:50:55.570Z,15.27
2022-11-10T02:53:22.868Z,17.43
2022-11-10T02:55:50.173Z,14.77
2022-11-10T02:58:17.188Z,14.97
2022-11-10T03:00:44.199Z,14.40
2022-11-10T03:03:11.212Z,15.57
2022-11-10T03:05:38.245Z,15.83
2022-11-10T03:32:10.334Z,16.53
2022-11-10T03:34:37.479Z,16.90
2022-11-10T03:37:04.435Z,16.83
2022-11-10T03:39:31.515Z,16.83
2022-11-10T03:41:58.609Z,16.70
2022-11-10T03:44:25.726Z,16.33
2022-11-10T03:46:52.747Z,17.03
2022-11-10T03:49:19.729Z,16.63
2022-11-10T03:51:46.689Z,16.70
2022-11-10T03:54:13.660Z,16.10
2022-11-10T03:56:41.006Z,16.43
2022-11-10T03:59:08.017Z,16.40
2022-11-10T04:01:35.101Z,15.20
2022-11-10T04:04:02.086Z,15.50
2022-11-10T04:06:49.078Z,15.07
2022-11-10T04:09:16.064Z,16.40
2022-11-10T04:12:02.898Z,15.13
2022-11-10T04:14:49.734Z,15.93
2022-11-10T04:17:16.714Z,15.80
2022-11-10T04:19:43.715Z,15.10
2022-11-10T04:22:30.709Z,15.70
2022-11-10T04:24:57.673Z,16.47
2022-11-10T04:27:24.973Z,15.27
2022-11-10T04:29:51.901Z,15.13
2022-11-10T04:32:18.925Z,15.70
2022-11-10T04:34:45.889Z,15.60
2022-11-10T04:37:12.842Z,15.77
2022-11-10T04:39:39.794Z,15.60
2022-11-10T04:42:06.800Z,15.73
2022-11-10T04:44:33.841Z,15.03
2022-11-10T04:47:00.802Z,15.60
2022-11-10T04:49:27.856Z,14.57
2022-11-10T04:51:54.885Z,15.67
2022-11-10T04:54:21.859Z,16.27
2022-11-10T04:56:48.838Z,15.17
2022-11-10T04:59:15.765Z,15.93
2022-11-10T05:01:42.735Z,14.10
2022-11-10T05:04:10.454Z,16.90
2022-11-10T05:06:40.173Z,14.63
2022-11-10T05:09:08.198Z,15.10
2022-11-10T05:11:35.591Z,14.83
2022-11-10T05:14:02.634Z,15.17
2022-11-10T05:16:29.607Z,15.30
2022-11-10T05:18:58.376Z,15.20
2022-11-10T05:21:25.427Z,14.00
2022-11-10T05:23:52.404Z,15.33
2022-11-10T05:26:19.816Z,15.60
2022-11-10T05:28:46.907Z,14.27
2022-11-10T05:31:14.037Z,14.87
2022-11-10T05:33:41.103Z,14.90
2022-11-10T05:36:11.146Z,14.60
2022-11-10T05:38:43.162Z,13.50
2022-11-10T05:41:11.943Z,15.10
2022-11-10T05:43:38.911Z,14.67
2022-11-10T05:46:06.819Z,14.43
2022-11-10T05:48:36.091Z,13.90
2022-11-10T05:51:03.729Z,14.30
2022-11-10T05:53:30.788Z,15.00
2022-11-10T05:55:57.810Z,14.47
2022-11-10T05:58:24.837Z,14.13
2022-11-10T06:00:51.825Z,13.27
2022-11-10T06:03:20.074Z,14.63
2022-11-10T06:05:47.738Z,14.77
2022-11-10T06:08:15.004Z,13.93
2022-11-10T06:10:42.058Z,13.27
2022-11-10T06:13:09.361Z,15.40
2022-11-10T06:15:36.432Z,14.47
2022-11-10T06:18:04.929Z,16.33
2022-11-10T06:20:32.303Z,16.17
2022-11-10T06:23:22.047Z,13.70
2022-11-10T06:25:49.323Z,13.20
2022-11-10T06:28:17.314Z,14.27
2022-11-10T06:30:44.345Z,15.30
2022-11-10T06:44:36.826Z,14.50
2022-11-10T06:47:04.173Z,14.43
2022-11-10T06:49:31.752Z,14.67
2022-11-10T06:51:58.761Z,13.30
2022-11-10T06:54:25.743Z,14.13
2022-11-10T06:56:52.717Z,13.80
2022-11-10T06:59:19.794Z,14.33
2022-11-10T07:01:47.889Z,13.83
2022-11-10T07:04:20.428Z,17.47
2022-11-10T07:06:48.141Z,18.47
2022-11-10T07:09:15.627Z,18.33
2022-11-10T07:11:42.820Z,13.53
2022-11-10T07:14:10.552Z,15.03
2022-11-10T07:16:37.857Z,12.87
2022-11-10T07:19:05.386Z,12.17
2022-11-10T07:21:33.361Z,12.17
2022-11-10T07:24:03.218Z,14.77
2022-11-10T07:26:32.273Z,17.10
2022-11-10T07:28:59.224Z,17.50
2022-11-10T07:31:26.325Z,15.33
2022-11-10T07:33:54.663Z,17.17
2022-11-10T07:36:21.954Z,15.53
2022-11-10T07:38:48.909Z,14.43
2022-11-10T07:41:15.901Z,16.37
2022-11-10T07:43:48.524Z,14.83
2022-11-10T07:46:15.493Z,13.67
2022-11-10T07:48:42.528Z,15.80
2022-11-10T07:51:09.897Z,14.67
2022-11-10T07:53:36.957Z,15.00
2022-11-10T07:56:04.003Z,11.97
2022-11-10T07:58:32.820Z,12.33
2022-11-10T08:00:59.973Z,12.57
2022-11-10T08:03:26.971Z,11.67
2022-11-10T08:05:53.918Z,13.10
2022-11-10T08:08:20.913Z,12.20
2022-11-10T08:10:48.043Z,11.40
2022-11-10T08:13:15.185Z,9.93
2022-11-10T08:15:42.670Z,9.33
2022-11-10T08:18:35.504Z,10.27
2022-11-10T08:21:04.194Z,9.20
2022-11-10T08:23:31.389Z,11.60
2022-11-10T08:25:59.871Z,9.30
2022-11-10T08:28:27.523Z,10.40
2022-11-10T08:30:54.736Z,8.40
2022-11-10T08:33:22.181Z,7.67
2022-11-10T08:35:51.907Z,9.57
2022-11-10T08:38:22.432Z,8.70
2022-11-10T08:40:49.674Z,8.37
2022-11-10T08:43:18.327Z,8.70
2022-11-10T08:45:46.092Z,7.63
2022-11-10T08:48:16.860Z,8.00
2022-11-10T08:50:43.990Z,6.27
2022-11-10T08:53:14.263Z,6.43
2022-11-10T08:55:42.517Z,6.30
2022-11-10T08:58:14.333Z,6.20
2022-11-10T09:00:41.434Z,8.00
2022-11-10T09:03:14.231Z,6.37
2022-11-10T09:05:42.013Z,6.13
2022-11-10T09:08:09.860Z,6.00
2022-11-10T09:10:39.287Z,5.83
2022-11-10T09:13:06.600Z,5.73
2022-11-10T09:15:35.097Z,5.37
2022-11-10T09:18:04.419Z,5.10
2022-11-10T09:20:33.266Z,5.63
2022-11-10T09:23:10.930Z,4.83
2022-11-10T09:25:38.756Z,5.00
2022-11-10T09:28:06.222Z,4.90
2022-11-10T09:30:33.458Z,4.40
2022-11-10T09:33:01.243Z,4.73
2022-11-10T09:35:31.227Z,5.90
2022-11-10T09:37:59.729Z,4.70
2022-11-10T09:41:04.619Z,4.23
2022-11-10T09:43:57.377Z,4.70
2022-11-10T09:46:29.783Z,4.60
2022-11-10T09:49:11.675Z,4.47
2022-11-10T09:51:47.943Z,5.10
2022-11-10T09:54:44.388Z,5.70
2022-11-10T09:57:15.885Z,5.47
2022-11-10T09:59:43.890Z,6.00
2022-11-10T10:02:34.167Z,5.20
2022-11-10T10:05:35.543Z,4.40
2022-11-10T10:08:17.003Z,3.83
2022-11-10T10:10:51.961Z,3.90
2022-11-10T10:13:30.498Z,4.50
2022-11-10T10:16:37.211Z,4.70
2022-11-10T10:19:36.634Z,3.63
2022-11-10T10:22:43.370Z,3.80
2022-11-10T10:25:16.866Z,4.07
2022-11-10T10:27:45.410Z,3.87
2022-11-10T10:30:40.616Z,4.30
2022-11-10T10:33:16.528Z,3.63
2022-11-10T10:35:45.561Z,4.20
2022-11-10T10:38:35.901Z,3.70
2022-11-10T10:41:26.107Z,4.40
2022-11-10T10:43:57.175Z,3.87
2022-11-10T10:46:32.904Z,3.17
2022-11-10T10:49:29.591Z,3.93
2022-11-10T10:52:16.828Z,5.30
2022-11-10T10:54:43.999Z,4.30
2022-11-10T10:57:29.366Z,3.60
2022-11-10T11:03:47.127Z,3.93
2022-11-10T11:06:34.360Z,3.33
2022-11-10T11:09:09.128Z,4.10
2022-11-10T11:11:38.570Z,3.53
2022-11-10T11:14:29.079Z,4.07
2022-11-10T11:17:00.767Z,3.90
2022-11-10T11:19:34.415Z,3.20
2022-11-10T11:22:26.061Z,3.33
2022-11-10T11:25:18.982Z,3.80
2022-11-10T11:28:25.747Z,3.50
2022-11-10T11:31:32.615Z,3.90
2022-11-10T11:34:39.315Z,4.17
2022-11-10T11:37:34.127Z,3.40
2022-11-10T11:40:27.408Z,4.00
2022-11-10T11:43:34.551Z,4.50
2022-11-10T11:46:44.966Z,4.33
2022-11-10T11:49:55.527Z,6.07
2022-11-10T11:53:03.142Z,4.40
2022-11-10T11:56:09.967Z,4.90
2022-11-10T11:58:46.300Z,6.30
2022-11-10T12:01:53.468Z,5.77
2022-11-10T12:05:00.195Z,5.07
2022-11-10T12:08:09.200Z,4.23
2022-11-10T12:11:10.092Z,4.27
2022-11-10T12:13:47.817Z,3.90
2022-11-10T12:16:29.366Z,3.60
2022-11-10T12:19:23.371Z,3.30
2022-11-10T12:22:30.115Z,4.57
2022-11-10T12:25:36.899Z,5.10
2022-11-10T12:28:31.890Z,4.27
2022-11-10T12:31:02.765Z,3.93
2022-11-10T12:33:53.450Z,3.07
2022-11-10T12:36:24.459Z,4.20
2022-11-10T12:39:31.637Z,4.17
2022-11-10T12:42:02.922Z,5.00
2022-11-10T12:45:12.664Z,3.40
2022-11-10T12:47:49.132Z,4.20
2022-11-10T12:50:56.154Z,3.80
2022-11-10T12:53:27.973Z,3.10
2022-11-10T12:56:25.937Z,3.50
2022-11-10T12:59:20.267Z,5.17
2022-11-10T13:01:51.251Z,3.90
2022-11-10T13:04:20.056Z,4.53
2022-11-10T13:06:52.800Z,3.30
2022-11-10T13:09:41.549Z,3.63
2022-11-10T13:12:28.343Z,4.20
2022-11-10T13:14:55.358Z,3.97
2022-11-10T13:18:02.055Z,5.13
2022-11-10T13:20:50.613Z,3.73
2022-11-10T13:23:57.700Z,5.17
2022-11-10T13:27:04.376Z,5.53
2022-11-10T13:30:11.031Z,3.90
2022-11-10T13:32:38.229Z,4.20
2022-11-10T13:35:44.919Z,4.13
2022-11-10T13:38:51.628Z,4.73
2022-11-10T13:41:45.113Z,3.50
2022-11-10T13:44:54.002Z,3.73
2022-11-10T13:48:00.745Z,3.13
2022-11-10T13:50:41.006Z,4.10
2022-11-10T13:53:47.731Z,4.17
2022-11-10T13:56:54.445Z,5.07
2022-11-10T13:59:25.450Z,3.83
2022-11-10T14:01:52.456Z,4.10
2022-11-10T14:04:42.688Z,4.30
2022-11-10T14:07:19.330Z,5.27
2022-11-10T14:09:51.988Z,5.60
2022-11-10T14:12:47.274Z,5.30
2022-11-10T14:15:39.165Z,5.03
2022-11-10T14:18:19.010Z,5.07
2022-11-10T14:20:49.719Z,4.70
2022-11-10T14:23:42.461Z,4.20
2022-11-10T14:26:23.496Z,4.10
2022-11-10T14:28:50.539Z,6.30
2022-11-10T14:31:23.779Z,6.93
2022-11-10T14:33:56.234Z,5.13
2022-11-10T14:36:23.780Z,7.57
2022-11-10T14:38:52.741Z,5.53
2022-11-10T14:41:22.651Z,4.63
2022-11-10T14:44:07.644Z,4.97
2022-11-10T14:46:35.395Z,7.22
2022-11-10T14:49:04.825Z,6.90
2022-11-10T14:51:34.705Z,7.13
2022-11-10T14:54:02.800Z,4.20
2022-11-10T14:56:35.136Z,4.53
2022-11-10T14:59:04.725Z,6.23
2022-11-10T15:01:38.752Z,6.10
2022-11-10T15:04:07.879Z,5.63
2022-11-10T15:06:35.263Z,4.93
2022-11-10T15:09:24.199Z,5.57
2022-11-10T15:12:05.324Z,5.90
2022-11-10T15:15:00.874Z,5.67
2022-11-10T15:17:48.845Z,5.78
2022-11-10T15:20:40.142Z,6.13
2022-11-10T15:23:20.533Z,6.50
2022-11-10T15:25:59.988Z,7.13
2022-11-10T15:28:31.579Z,7.97
2022-11-10T15:31:20.233Z,7.53
2022-11-10T15:33:52.326Z,6.40
2022-11-10T15:36:51.445Z,8.10
2022-11-10T15:39:22.620Z,13.27
2022-11-10T15:41:51.250Z,19.97
2022-11-10T15:44:38.066Z,8.83
2022-11-10T15:47:06.275Z,9.97
2022-11-10T15:49:36.886Z,8.00
2022-11-10T15:52:16.903Z,6.80
2022-11-10T15:54:45.780Z,7.53
2022-11-10T15:57:20.470Z,8.20
2022-11-10T15:59:48.492Z,8.38
2022-11-10T16:02:21.168Z,6.97
2022-11-10T16:04:50.148Z,7.57
2022-11-10T16:07:17.818Z,6.10
2022-11-10T16:09:46.252Z,7.37
2022-11-10T16:12:17.897Z,6.13
2022-11-10T16:14:48.646Z,8.03
2022-11-10T16:17:17.082Z,7.10
2022-11-10T16:19:44.720Z,6.30
2022-11-10T16:22:13.466Z,6.77
2022-11-10T16:24:44.986Z,5.70
2022-11-10T16:27:14.606Z,6.37
2022-11-10T16:29:43.391Z,6.13
2022-11-10T16:32:12.157Z,7.10
2022-11-10T16:34:39.334Z,7.07
2022-11-10T16:37:06.656Z,6.17
2022-11-10T16:39:34.190Z,8.67
2022-11-10T16:42:01.289Z,8.20
2022-11-10T16:44:28.354Z,7.27
2022-11-10T16:46:58.884Z,9.03
2022-11-10T16:49:46.106Z,8.77
2022-11-10T16:52:21.433Z,8.50
2022-11-10T16:57:20.306Z,9.27
2022-11-10T16:59:47.419Z,8.43
2022-11-10T17:02:29.186Z,9.00
2022-11-10T17:04:56.756Z,9.00
2022-11-10T17:07:26.252Z,9.50
2022-11-10T17:09:53.527Z,10.40
2022-11-10T17:12:20.587Z,9.67
2022-11-10T17:14:47.789Z,9.63
2022-11-10T17:17:18.798Z,9.00
2022-11-10T17:19:47.690Z,10.03
2022-11-10T17:22:19.888Z,10.73
2022-11-10T17:24:53.169Z,15.27
2022-11-10T17:27:20.260Z,15.50
2022-11-10T17:29:47.521Z,12.63
2022-11-10T17:32:14.633Z,11.73
2022-11-10T17:34:44.173Z,11.80
2022-11-10T17:37:13.406Z,13.57
2022-11-10T17:39:41.885Z,15.93
2022-11-10T17:42:13.755Z,16.00
2022-11-10T17:44:41.341Z,13.40
2022-11-10T17:47:08.390Z,18.33
2022-11-10T17:49:35.547Z,14.47
2022-11-10T17:52:02.660Z,15.67
2022-11-10T17:54:29.672Z,14.57
2022-11-10T17:56:56.684Z,17.73
2022-11-10T17:59:23.754Z,13.93
2022-11-10T18:01:50.774Z,15.03
2022-11-10T18:04:17.861Z,15.50
2022-11-10T18:06:44.979Z,15.23
2022-11-10T18:09:12.111Z,12.20
2022-11-10T18:11:42.257Z,13.40
2022-11-10T18:14:11.512Z,12.33
2022-11-10T18:16:38.938Z,11.97
2022-11-10T18:19:05.989Z,13.80
2022-11-10T18:21:33.104Z,11.50
2022-11-10T18:24:00.281Z,11.73
2022-11-10T18:26:27.319Z,11.30
2022-11-10T18:28:54.467Z,12.23
2022-11-10T18:31:21.522Z,11.30
2022-11-10T18:33:48.638Z,12.30
2022-11-10T18:36:15.711Z,11.53
2022-11-10T18:38:42.840Z,11.17
2022-11-10T18:41:30.487Z,11.10
2022-11-10T18:43:57.635Z,11.07
2022-11-10T18:46:24.788Z,11.67
2022-11-10T18:48:52.015Z,11.37
2022-11-10T18:51:19.138Z,12.93
2022-11-10T18:53:46.204Z,11.57
2022-11-10T18:56:14.540Z,12.43
2022-11-10T18:58:41.945Z,12.20
2022-11-10T19:01:10.507Z,12.43
2022-11-10T19:04:02.713Z,11.67
2022-11-10T19:06:39.228Z,12.60
2022-11-10T19:09:09.545Z,11.90
2022-11-10T19:11:36.696Z,11.03
2022-11-10T19:14:03.890Z,12.60
2022-11-10T19:16:31.334Z,12.20
2022-11-10T19:18:58.383Z,11.97
2022-11-10T19:21:27.835Z,11.17
2022-11-10T19:23:56.994Z,11.13
2022-11-10T19:26:26.097Z,12.43
2022-11-10T19:28:55.485Z,12.93
2022-11-10T19:31:23.932Z,11.87
2022-11-10T19:33:53.849Z,13.20
2022-11-10T19:36:23.438Z,12.13
2022-11-10T19:38:51.236Z,10.27
2022-11-10T19:41:21.988Z,11.90
2022-11-10T19:43:49.388Z,12.37
2022-11-10T19:46:22.956Z,10.17
2022-11-10T19:48:50.657Z,10.23
2022-11-10T19:51:19.056Z,11.17
2022-11-10T19:53:48.802Z,12.93
2022-11-10T19:56:26.307Z,12.27
2022-11-10T19:58:56.755Z,12.27
2022-11-10T20:01:24.334Z,11.53
2022-11-10T20:03:51.483Z,11.00
2022-11-10T20:06:21.398Z,11.30
2022-11-10T20:08:49.769Z,11.20
2022-11-10T20:11:37.848Z,10.07
2022-11-10T20:14:06.805Z,10.10
2022-11-10T20:16:33.887Z,10.57
2022-11-10T20:19:01.475Z,10.13
2022-11-10T20:21:29.129Z,10.70
2022-11-10T20:23:57.204Z,9.77
2022-11-10T20:26:25.181Z,10.03
2022-11-10T20:29:04.031Z,10.13
2022-11-10T20:31:31.727Z,9.40
2022-11-10T20:33:59.749Z,10.27
2022-11-10T20:36:29.486Z,8.83
2022-11-10T20:38:59.270Z,10.03
2022-11-10T20:41:28.792Z,9.67
2022-11-10T20:43:56.038Z,8.80
2022-11-10T20:49:13.512Z,10.20
2022-11-10T20:51:41.308Z,9.13
2022-11-10T20:54:09.019Z,9.97
2022-11-10T20:56:36.929Z,10.10
2022-11-10T20:59:04.598Z,12.37
2022-11-10T21:01:33.721Z,12.27
2022-11-10T21:04:02.945Z,12.70
2022-11-10T21:06:30.031Z,11.20
2022-11-10T21:08:57.423Z,11.53
2022-11-10T21:11:44.398Z,12.93
2022-11-10T21:14:11.663Z,11.30
2022-11-10T21:16:38.907Z,12.17
2022-11-10T21:19:06.337Z,12.53
2022-11-10T21:21:34.834Z,11.80
2022-11-10T21:24:04.363Z,12.63
2022-11-10T21:26:34.276Z,11.90
2022-11-10T21:29:03.101Z,12.57
2022-11-10T21:31:30.876Z,13.13
2022-11-10T21:33:58.691Z,13.33
2022-11-10T21:36:29.476Z,12.87
2022-11-10T21:38:57.655Z,12.10
2022-11-10T21:41:25.663Z,12.03
2022-11-10T21:43:52.719Z,12.43
2022-11-10T21:46:20.134Z,13.83
2022-11-10T21:48:47.343Z,13.13
2022-11-10T21:51:14.450Z,13.33
2022-11-10T21:53:42.396Z,12.37
2022-11-10T21:56:11.345Z,11.73
2022-11-10T21:58:38.702Z,12.77
2022-11-10T22:01:26.035Z,12.60
2022-11-10T22:03:53.315Z,12.57
2022-11-10T22:06:21.298Z,14.40
2022-11-10T22:08:48.724Z,13.70
2022-11-10T22:11:38.865Z,13.37
2022-11-10T22:14:32.782Z,12.70
2022-11-10T22:17:20.178Z,13.67
2022-11-10T22:19:47.172Z,13.03
2022-11-10T22:22:15.202Z,13.63
2022-11-10T22:24:42.284Z,13.50
2022-11-10T22:27:09.318Z,12.97
2022-11-10T22:29:36.386Z,12.33
2022-11-10T22:32:04.563Z,13.23
2022-11-10T22:34:31.878Z,13.03
2022-11-10T22:37:00.397Z,13.17
2022-11-10T22:39:47.347Z,12.30
2022-11-10T22:42:34.378Z,12.40
2022-11-10T22:45:02.692Z,12.50
2022-11-10T22:47:49.566Z,12.63
2022-11-10T22:50:16.681Z,11.87
2022-11-10T22:52:43.740Z,12.43
2022-11-10T22:55:10.831Z,14.10
2022-11-10T22:57:37.883Z,12.57
2022-11-10T23:00:05.881Z,13.00
2022-11-10T23:02:32.930Z,14.53
2022-11-10T23:05:00.497Z,11.93
2022-11-10T23:07:28.848Z,13.13
2022-11-10T23:09:55.896Z,12.60
2022-11-10T23:12:23.006Z,12.80
2022-11-10T23:14:50.024Z,12.53
2022-11-10T23:17:17.010Z,12.77
2022-11-10T23:19:44.004Z,15.83
2022-11-10T23:22:10.996Z,13.60
2022-11-10T23:24:38.025Z,12.43
2022-11-10T23:27:05.017Z,14.50
2022-11-10T23:29:31.984Z,13.87
2022-11-10T23:31:59.416Z,14.87
2022-11-10T23:34:26.411Z,13.90
2022-11-10T23:36:53.425Z,12.80
2022-11-10T23:39:20.442Z,14.97
2022-11-10T23:41:47.402Z,14.07
2022-11-10T23:44:14.401Z,15.63
2022-11-10T23:46:41.462Z,15.30
2022-11-10T23:49:08.453Z,15.33
2022-11-10T23:51:35.456Z,14.83
2022-11-10T23:54:02.449Z,14.53
2022-11-10T23:56:29.453Z,15.07
2022-11-10T23:58:56.434Z,14.90
